sensor_id;sensor_type;location;lat;lon;timestamp;temperature;humidity
43673;DHT22;41723;49.326;8.430;2022-12-15T00:01:58;0.50;99.90
43673;DHT22;41723;49.326;8.430;2022-12-15T00:04:42;0.40;99.90
43673;DHT22;41723;49.326;8.430;2022-12-15T00:07:26;0.30;99.90
43673;DHT22;41723;49.326;8.430;2022-12-15T00:10:11;0.20;99.90
43673;DHT22;41723;49.326;8.430;2022-12-15T00:12:55;0.20;99.90
43673;DHT22;41723;49.326;8.430;2022-12-15T00:15:39;0.30;99.90
43673;DHT22;41723;49.326;8.430;2022-12-15T00:18:23;0.50;99.90
43673;DHT22;41723;49.326;8.430;2022-12-15T00:21:07;0.50;99.90
43673;DHT22;41723;49.326;8.430;2022-12-15T00:23:51;0.50;99.90
43673;DHT22;41723;49.326;8.430;2022-12-15T00:26:35;0.50;99.90
43673;DHT22;41723;49.326;8.430;2022-12-15T00:29:20;0.40;99.90
43673;DHT22;41723;49.326;8.430;2022-12-15T00:32:04;0.30;99.90
43673;DHT22;41723;49.326;8.430;2022-12-15T00:34:48;0.20;99.90
43673;DHT22;41723;49.326;8.430;2022-12-15T00:37:32;0.20;99.90
43673;DHT22;41723;49.326;8.430;2022-12-15T00:40:16;0.00;99.90
43673;DHT22;41723;49.326;8.430;2022-12-15T00:42:42;0.00;99.90
43673;DHT22;41723;49.326;8.430;2022-12-15T00:45:08;0.00;99.90
43673;DHT22;41723;49.326;8.430;2022-12-15T00:47:33;0.20;99.90
43673;DHT22;41723;49.326;8.430;2022-12-15T00:49:59;0.30;99.90
43673;DHT22;41723;49.326;8.430;2022-12-15T00:52:43;0.30;99.90
43673;DHT22;41723;49.326;8.430;2022-12-15T00:55:27;0.30;99.90
43673;DHT22;41723;49.326;8.430;2022-12-15T00:58:12;0.20;99.90
43673;DHT22;41723;49.326;8.430;2022-12-15T01:00:56;0.20;99.90
43673;DHT22;41723;49.326;8.430;2022-12-15T01:03:40;0.40;99.90
43673;DHT22;41723;49.326;8.430;2022-12-15T01:06:25;0.40;99.90
43673;DHT22;41723;49.326;8.430;2022-12-15T01:09:10;0.60;99.90
43673;DHT22;41723;49.326;8.430;2022-12-15T01:11:55;0.80;99.90
43673;DHT22;41723;49.326;8.430;2022-12-15T01:14:39;0.90;99.90
43673;DHT22;41723;49.326;8.430;2022-12-15T01:17:23;0.80;99.90
43673;DHT22;41723;49.326;8.430;2022-12-15T01:20:08;0.80;99.90
43673;DHT22;41723;49.326;8.430;2022-12-15T01:22:39;0.90;99.90
43673;DHT22;41723;49.326;8.430;2022-12-15T01:25:05;0.90;99.90
43673;DHT22;41723;49.326;8.430;2022-12-15T01:27:31;0.60;99.90
43673;DHT22;41723;49.326;8.430;2022-12-15T01:29:57;0.60;99.90
43673;DHT22;41723;49.326;8.430;2022-12-15T01:32:24;0.60;99.90
43673;DHT22;41723;49.326;8.430;2022-12-15T01:34:49;0.60;99.90
43673;DHT22;41723;49.326;8.430;2022-12-15T01:37:15;0.60;99.90
43673;DHT22;41723;49.326;8.430;2022-12-15T01:39:40;0.70;99.90
43673;DHT22;41723;49.326;8.430;2022-12-15T01:42:25;0.70;99.90
43673;DHT22;41723;49.326;8.430;2022-12-15T01:44:51;0.60;99.90
43673;DHT22;41723;49.326;8.430;2022-12-15T01:47:17;0.50;99.90
43673;DHT22;41723;49.326;8.430;2022-12-15T01:49:45;0.50;99.90
43673;DHT22;41723;49.326;8.430;2022-12-15T01:52:12;0.50;99.90
43673;DHT22;41723;49.326;8.430;2022-12-15T01:54:41;0.70;99.90
43673;DHT22;41723;49.326;8.430;2022-12-15T01:57:08;0.50;99.90
43673;DHT22;41723;49.326;8.430;2022-12-15T01:59:36;0.50;99.90
43673;DHT22;41723;49.326;8.430;2022-12-15T02:02:03;0.60;99.90
43673;DHT22;41723;49.326;8.430;2022-12-15T02:04:29;0.60;99.90
43673;DHT22;41723;49.326;8.430;2022-12-15T02:06:56;0.50;99.90
43673;DHT22;41723;49.326;8.430;2022-12-15T02:09:21;0.40;99.90
43673;DHT22;41723;49.326;8.430;2022-12-15T02:16:59;0.40;99.90
43673;DHT22;41723;49.326;8.430;2022-12-15T02:22:16;0.30;99.90
43673;DHT22;41723;49.326;8.430;2022-12-15T02:32:24;0.40;99.90
43673;DHT22;41723;49.326;8.430;2022-12-15T02:34:56;0.30;99.90
43673;DHT22;41723;49.326;8.430;2022-12-15T02:37:24;0.50;99.90
43673;DHT22;41723;49.326;8.430;2022-12-15T02:39:50;0.60;99.90
43673;DHT22;41723;49.326;8.430;2022-12-15T02:42:16;0.50;99.90
43673;DHT22;41723;49.326;8.430;2022-12-15T02:44:52;0.40;99.90
43673;DHT22;41723;49.326;8.430;2022-12-15T02:54:58;0.60;99.90
43673;DHT22;41723;49.326;8.430;2022-12-15T02:57:30;0.50;99.90
43673;DHT22;41723;49.326;8.430;2022-12-15T02:59:59;0.40;99.90
43673;DHT22;41723;49.326;8.430;2022-12-15T03:02:26;0.40;99.90
43673;DHT22;41723;49.326;8.430;2022-12-15T03:04:52;0.40;99.90
43673;DHT22;41723;49.326;8.430;2022-12-15T03:07:18;0.40;99.90
43673;DHT22;41723;49.326;8.430;2022-12-15T03:09:44;0.30;99.90
43673;DHT22;41723;49.326;8.430;2022-12-15T03:12:09;0.30;99.90
43673;DHT22;41723;49.326;8.430;2022-12-15T03:14:35;0.30;99.90
43673;DHT22;41723;49.326;8.430;2022-12-15T03:17:01;0.40;99.90
43673;DHT22;41723;49.326;8.430;2022-12-15T03:19:26;0.50;99.90
43673;DHT22;41723;49.326;8.430;2022-12-15T03:21:52;0.60;99.90
43673;DHT22;41723;49.326;8.430;2022-12-15T03:24:18;0.50;99.90
43673;DHT22;41723;49.326;8.430;2022-12-15T03:26:43;0.50;99.90
43673;DHT22;41723;49.326;8.430;2022-12-15T03:29:12;0.40;99.90
43673;DHT22;41723;49.326;8.430;2022-12-15T03:31:38;0.30;99.90
43673;DHT22;41723;49.326;8.430;2022-12-15T03:34:04;0.40;99.90
43673;DHT22;41723;49.326;8.430;2022-12-15T03:36:29;0.50;99.90
43673;DHT22;41723;49.326;8.430;2022-12-15T03:38:55;0.40;99.90
43673;DHT22;41723;49.326;8.430;2022-12-15T03:41:20;0.50;99.90
43673;DHT22;41723;49.326;8.430;2022-12-15T03:43:46;0.70;99.90
43673;DHT22;41723;49.326;8.430;2022-12-15T03:46:11;0.60;99.90
43673;DHT22;41723;49.326;8.430;2022-12-15T03:48:37;0.40;99.90
43673;DHT22;41723;49.326;8.430;2022-12-15T03:51:03;0.30;99.90
43673;DHT22;41723;49.326;8.430;2022-12-15T03:53:28;0.30;99.90
43673;DHT22;41723;49.326;8.430;2022-12-15T03:55:54;0.30;99.90
43673;DHT22;41723;49.326;8.430;2022-12-15T03:58:20;0.30;99.90
43673;DHT22;41723;49.326;8.430;2022-12-15T04:00:45;0.40;99.90
43673;DHT22;41723;49.326;8.430;2022-12-15T04:03:11;0.40;99.90
43673;DHT22;41723;49.326;8.430;2022-12-15T04:05:37;0.40;99.90
43673;DHT22;41723;49.326;8.430;2022-12-15T04:08:03;0.40;99.90
43673;DHT22;41723;49.326;8.430;2022-12-15T04:10:30;0.50;99.90
43673;DHT22;41723;49.326;8.430;2022-12-15T04:12:57;0.50;99.90
43673;DHT22;41723;49.326;8.430;2022-12-15T04:15:23;0.50;99.90
43673;DHT22;41723;49.326;8.430;2022-12-15T04:17:48;0.40;99.90
43673;DHT22;41723;49.326;8.430;2022-12-15T04:20:14;0.20;99.90
43673;DHT22;41723;49.326;8.430;2022-12-15T04:22:42;0.20;99.90
43673;DHT22;41723;49.326;8.430;2022-12-15T04:25:09;0.10;99.90
43673;DHT22;41723;49.326;8.430;2022-12-15T04:27:54;0.20;99.90
43673;DHT22;41723;49.326;8.430;2022-12-15T04:30:39;0.30;99.90
43673;DHT22;41723;49.326;8.430;2022-12-15T04:33:25;0.40;99.90
43673;DHT22;41723;49.326;8.430;2022-12-15T04:36:09;0.30;99.90
43673;DHT22;41723;49.326;8.430;2022-12-15T04:38:55;0.40;99.90
43673;DHT22;41723;49.326;8.430;2022-12-15T04:41:40;0.30;99.90
43673;DHT22;41723;49.326;8.430;2022-12-15T04:44:24;0.30;99.90
43673;DHT22;41723;49.326;8.430;2022-12-15T04:47:09;0.20;99.90
43673;DHT22;41723;49.326;8.430;2022-12-15T04:49:53;0.10;99.90
43673;DHT22;41723;49.326;8.430;2022-12-15T04:52:37;0.20;99.90
43673;DHT22;41723;49.326;8.430;2022-12-15T04:55:21;0.10;99.90
43673;DHT22;41723;49.326;8.430;2022-12-15T04:58:06;0.10;99.90
43673;DHT22;41723;49.326;8.430;2022-12-15T05:00:51;0.20;99.90
43673;DHT22;41723;49.326;8.430;2022-12-15T05:03:35;0.20;99.90
43673;DHT22;41723;49.326;8.430;2022-12-15T05:06:19;0.30;99.90
43673;DHT22;41723;49.326;8.430;2022-12-15T05:09:04;0.30;99.90
43673;DHT22;41723;49.326;8.430;2022-12-15T05:11:48;0.20;99.90
43673;DHT22;41723;49.326;8.430;2022-12-15T05:14:33;0.40;99.90
43673;DHT22;41723;49.326;8.430;2022-12-15T05:17:17;0.40;99.90
43673;DHT22;41723;49.326;8.430;2022-12-15T05:20:01;0.40;99.90
43673;DHT22;41723;49.326;8.430;2022-12-15T05:22:50;0.30;99.90
43673;DHT22;41723;49.326;8.430;2022-12-15T05:25:35;0.30;99.90
43673;DHT22;41723;49.326;8.430;2022-12-15T05:28:19;0.40;99.90
43673;DHT22;41723;49.326;8.430;2022-12-15T05:31:04;0.30;99.90
43673;DHT22;41723;49.326;8.430;2022-12-15T05:33:48;0.50;99.90
43673;DHT22;41723;49.326;8.430;2022-12-15T05:36:14;0.60;99.90
43673;DHT22;41723;49.326;8.430;2022-12-15T05:38:39;0.40;99.90
43673;DHT22;41723;49.326;8.430;2022-12-15T05:41:05;0.30;99.90
43673;DHT22;41723;49.326;8.430;2022-12-15T05:43:30;0.30;99.90
43673;DHT22;41723;49.326;8.430;2022-12-15T05:46:00;0.30;99.90
43673;DHT22;41723;49.326;8.430;2022-12-15T05:48:26;0.30;99.90
43673;DHT22;41723;49.326;8.430;2022-12-15T05:50:52;0.20;99.90
43673;DHT22;41723;49.326;8.430;2022-12-15T05:53:17;0.20;99.90
43673;DHT22;41723;49.326;8.430;2022-12-15T05:55:43;0.30;99.90
43673;DHT22;41723;49.326;8.430;2022-12-15T05:58:09;0.30;99.90
43673;DHT22;41723;49.326;8.430;2022-12-15T06:00:34;0.20;99.90
43673;DHT22;41723;49.326;8.430;2022-12-15T06:03:00;0.20;99.90
43673;DHT22;41723;49.326;8.430;2022-12-15T06:05:27;0.20;99.90
43673;DHT22;41723;49.326;8.430;2022-12-15T06:07:52;0.10;99.90
43673;DHT22;41723;49.326;8.430;2022-12-15T06:10:18;0.10;99.90
43673;DHT22;41723;49.326;8.430;2022-12-15T06:12:44;0.10;99.90
43673;DHT22;41723;49.326;8.430;2022-12-15T06:15:10;0.10;99.90
43673;DHT22;41723;49.326;8.430;2022-12-15T06:17:36;0.10;99.90
43673;DHT22;41723;49.326;8.430;2022-12-15T06:20:01;0.10;99.90
43673;DHT22;41723;49.326;8.430;2022-12-15T06:22:27;-0.10;99.90
43673;DHT22;41723;49.326;8.430;2022-12-15T06:24:54;-0.20;99.90
43673;DHT22;41723;49.326;8.430;2022-12-15T06:27:20;-0.20;99.90
43673;DHT22;41723;49.326;8.430;2022-12-15T06:29:45;-0.30;99.90
43673;DHT22;41723;49.326;8.430;2022-12-15T06:32:11;-0.30;99.90
43673;DHT22;41723;49.326;8.430;2022-12-15T06:34:37;-0.50;99.90
43673;DHT22;41723;49.326;8.430;2022-12-15T06:37:02;-0.50;99.90
43673;DHT22;41723;49.326;8.430;2022-12-15T06:39:28;-0.50;99.90
43673;DHT22;41723;49.326;8.430;2022-12-15T06:41:54;-0.40;99.90
43673;DHT22;41723;49.326;8.430;2022-12-15T06:44:20;-0.30;99.90
43673;DHT22;41723;49.326;8.430;2022-12-15T06:46:45;-0.30;99.90
43673;DHT22;41723;49.326;8.430;2022-12-15T06:49:11;-0.10;99.90
43673;DHT22;41723;49.326;8.430;2022-12-15T06:51:37;0.00;99.90
43673;DHT22;41723;49.326;8.430;2022-12-15T06:54:03;0.00;99.90
43673;DHT22;41723;49.326;8.430;2022-12-15T06:56:32;0.10;99.90
43673;DHT22;41723;49.326;8.430;2022-12-15T06:59:01;0.10;99.90
43673;DHT22;41723;49.326;8.430;2022-12-15T07:01:27;-0.10;99.90
43673;DHT22;41723;49.326;8.430;2022-12-15T07:03:53;-0.30;99.90
43673;DHT22;41723;49.326;8.430;2022-12-15T07:06:19;-0.40;99.90
43673;DHT22;41723;49.326;8.430;2022-12-15T07:08:49;-0.50;99.90
43673;DHT22;41723;49.326;8.430;2022-12-15T07:11:18;-0.50;99.90
43673;DHT22;41723;49.326;8.430;2022-12-15T07:13:47;-0.60;99.90
43673;DHT22;41723;49.326;8.430;2022-12-15T07:16:13;-0.30;99.90
43673;DHT22;41723;49.326;8.430;2022-12-15T07:18:38;-0.20;99.90
43673;DHT22;41723;49.326;8.430;2022-12-15T07:21:06;-0.50;99.90
43673;DHT22;41723;49.326;8.430;2022-12-15T07:23:32;-0.60;99.90
43673;DHT22;41723;49.326;8.430;2022-12-15T07:25:58;-0.60;99.90
43673;DHT22;41723;49.326;8.430;2022-12-15T07:28:27;-0.70;99.90
43673;DHT22;41723;49.326;8.430;2022-12-15T07:30:53;-0.70;99.90
43673;DHT22;41723;49.326;8.430;2022-12-15T07:33:18;-0.70;99.90
43673;DHT22;41723;49.326;8.430;2022-12-15T07:35:51;-0.70;99.90
43673;DHT22;41723;49.326;8.430;2022-12-15T07:38:17;-0.70;99.90
43673;DHT22;41723;49.326;8.430;2022-12-15T07:40:42;-0.70;99.90
43673;DHT22;41723;49.326;8.430;2022-12-15T07:43:08;-0.90;99.90
43673;DHT22;41723;49.326;8.430;2022-12-15T07:45:34;-0.90;99.90
43673;DHT22;41723;49.326;8.430;2022-12-15T07:47:59;-0.90;99.90
43673;DHT22;41723;49.326;8.430;2022-12-15T07:50:25;-1.00;99.90
43673;DHT22;41723;49.326;8.430;2022-12-15T07:52:53;-1.00;99.90
43673;DHT22;41723;49.326;8.430;2022-12-15T07:55:19;-1.00;99.90
43673;DHT22;41723;49.326;8.430;2022-12-15T07:57:48;-1.10;99.90
43673;DHT22;41723;49.326;8.430;2022-12-15T08:00:14;-1.20;99.90
43673;DHT22;41723;49.326;8.430;2022-12-15T08:02:42;-1.20;99.90
43673;DHT22;41723;49.326;8.430;2022-12-15T08:05:08;-1.20;99.90
43673;DHT22;41723;49.326;8.430;2022-12-15T08:07:34;-1.30;99.90
43673;DHT22;41723;49.326;8.430;2022-12-15T08:10:00;-1.50;99.90
43673;DHT22;41723;49.326;8.430;2022-12-15T08:12:26;-1.40;99.90
43673;DHT22;41723;49.326;8.430;2022-12-15T08:36:34;-1.30;99.90
43673;DHT22;41723;49.326;8.430;2022-12-15T08:39:00;-1.10;99.90
43673;DHT22;41723;49.326;8.430;2022-12-15T08:41:27;-1.10;99.90
43673;DHT22;41723;49.326;8.430;2022-12-15T08:43:53;-1.20;99.90
43673;DHT22;41723;49.326;8.430;2022-12-15T08:46:20;-1.20;99.90
43673;DHT22;41723;49.326;8.430;2022-12-15T08:48:46;-1.20;99.90
43673;DHT22;41723;49.326;8.430;2022-12-15T08:51:12;-1.00;99.90
43673;DHT22;41723;49.326;8.430;2022-12-15T08:53:40;-1.00;99.90
43673;DHT22;41723;49.326;8.430;2022-12-15T08:56:07;-0.90;99.90
43673;DHT22;41723;49.326;8.430;2022-12-15T08:58:32;-0.80;99.90
43673;DHT22;41723;49.326;8.430;2022-12-15T09:01:02;-0.70;99.90
43673;DHT22;41723;49.326;8.430;2022-12-15T09:03:28;-0.60;99.90
43673;DHT22;41723;49.326;8.430;2022-12-15T09:05:54;-0.70;99.90
43673;DHT22;41723;49.326;8.430;2022-12-15T09:08:19;-0.80;99.90
43673;DHT22;41723;49.326;8.430;2022-12-15T09:10:46;-0.90;99.90
43673;DHT22;41723;49.326;8.430;2022-12-15T09:13:12;-1.10;99.90
43673;DHT22;41723;49.326;8.430;2022-12-15T09:15:37;-1.20;99.90
43673;DHT22;41723;49.326;8.430;2022-12-15T09:18:07;-1.10;99.90
43673;DHT22;41723;49.326;8.430;2022-12-15T09:20:33;-1.10;99.90
43673;DHT22;41723;49.326;8.430;2022-12-15T09:22:59;-1.00;99.90
43673;DHT22;41723;49.326;8.430;2022-12-15T09:25:24;-1.20;99.90
43673;DHT22;41723;49.326;8.430;2022-12-15T09:27:50;-1.20;99.90
43673;DHT22;41723;49.326;8.430;2022-12-15T09:30:15;-1.10;99.90
43673;DHT22;41723;49.326;8.430;2022-12-15T09:32:42;-0.90;99.90
43673;DHT22;41723;49.326;8.430;2022-12-15T09:35:08;-0.50;99.90
43673;DHT22;41723;49.326;8.430;2022-12-15T09:37:34;-0.60;99.90
43673;DHT22;41723;49.326;8.430;2022-12-15T09:39:59;-0.70;99.90
43673;DHT22;41723;49.326;8.430;2022-12-15T09:42:26;-0.80;99.90
43673;DHT22;41723;49.326;8.430;2022-12-15T09:45:38;-0.80;99.90
43673;DHT22;41723;49.326;8.430;2022-12-15T09:50:04;-0.90;99.90
43673;DHT22;41723;49.326;8.430;2022-12-15T09:52:53;-1.20;99.90
43673;DHT22;41723;49.326;8.430;2022-12-15T09:55:26;-1.30;99.90
43673;DHT22;41723;49.326;8.430;2022-12-15T09:57:53;-1.20;99.90
43673;DHT22;41723;49.326;8.430;2022-12-15T10:00:19;-1.10;99.90
43673;DHT22;41723;49.326;8.430;2022-12-15T10:02:51;-1.00;99.90
43673;DHT22;41723;49.326;8.430;2022-12-15T10:05:26;-1.20;99.90
43673;DHT22;41723;49.326;8.430;2022-12-15T10:07:55;-1.30;99.90
43673;DHT22;41723;49.326;8.430;2022-12-15T10:10:25;-1.40;99.90
43673;DHT22;41723;49.326;8.430;2022-12-15T10:12:55;-1.50;99.90
43673;DHT22;41723;49.326;8.430;2022-12-15T10:15:22;-1.40;99.90
43673;DHT22;41723;49.326;8.430;2022-12-15T10:22:46;-1.40;99.90
43673;DHT22;41723;49.326;8.430;2022-12-15T10:25:20;-1.30;99.90
43673;DHT22;41723;49.326;8.430;2022-12-15T10:30:30;-1.40;99.90
43673;DHT22;41723;49.326;8.430;2022-12-15T10:33:03;-1.30;99.90
43673;DHT22;41723;49.326;8.430;2022-12-15T10:35:35;-1.30;99.90
43673;DHT22;41723;49.326;8.430;2022-12-15T10:38:02;-1.40;99.90
43673;DHT22;41723;49.326;8.430;2022-12-15T10:40:45;-1.30;99.90
43673;DHT22;41723;49.326;8.430;2022-12-15T10:43:57;-1.40;99.90
43673;DHT22;41723;49.326;8.430;2022-12-15T10:46:02;-1.40;99.90
43673;DHT22;41723;49.326;8.430;2022-12-15T10:48:28;-1.40;99.90
43673;DHT22;41723;49.326;8.430;2022-12-15T10:53:42;-1.30;99.90
43673;DHT22;41723;49.326;8.430;2022-12-15T10:56:08;-1.30;99.90
43673;DHT22;41723;49.326;8.430;2022-12-15T10:58:50;-1.20;99.90
43673;DHT22;41723;49.326;8.430;2022-12-15T11:01:21;-1.30;99.90
43673;DHT22;41723;49.326;8.430;2022-12-15T11:03:48;-1.20;99.90
43673;DHT22;41723;49.326;8.430;2022-12-15T11:06:18;-1.10;99.90
43673;DHT22;41723;49.326;8.430;2022-12-15T11:08:44;-1.10;99.90
43673;DHT22;41723;49.326;8.430;2022-12-15T11:11:28;-0.90;99.90
43673;DHT22;41723;49.326;8.430;2022-12-15T11:14:14;-0.90;99.90
43673;DHT22;41723;49.326;8.430;2022-12-15T11:16:50;-0.70;99.90
43673;DHT22;41723;49.326;8.430;2022-12-15T11:22:03;-0.70;99.90
43673;DHT22;41723;49.326;8.430;2022-12-15T11:24:35;-0.80;99.90
43673;DHT22;41723;49.326;8.430;2022-12-15T11:27:20;-0.90;99.90
43673;DHT22;41723;49.326;8.430;2022-12-15T11:32:20;-0.90;99.90
43673;DHT22;41723;49.326;8.430;2022-12-15T11:34:47;-0.60;99.90
43673;DHT22;41723;49.326;8.430;2022-12-15T11:48:32;-0.90;99.90
43673;DHT22;41723;49.326;8.430;2022-12-15T12:00:54;-0.90;99.90
43673;DHT22;41723;49.326;8.430;2022-12-15T12:03:25;-0.90;99.90
43673;DHT22;41723;49.326;8.430;2022-12-15T12:11:00;-1.20;99.90
43673;DHT22;41723;49.326;8.430;2022-12-15T12:13:41;-1.20;99.90
43673;DHT22;41723;49.326;8.430;2022-12-15T12:16:14;-1.20;99.90
43673;DHT22;41723;49.326;8.430;2022-12-15T12:18:44;-1.30;99.90
43673;DHT22;41723;49.326;8.430;2022-12-15T12:21:13;-1.40;99.90
43673;DHT22;41723;49.326;8.430;2022-12-15T12:23:59;-1.40;99.90
43673;DHT22;41723;49.326;8.430;2022-12-15T12:37:24;-1.60;99.90
43673;DHT22;41723;49.326;8.430;2022-12-15T12:40:00;-1.70;99.90
43673;DHT22;41723;49.326;8.430;2022-12-15T12:42:37;-1.70;99.90
43673;DHT22;41723;49.326;8.430;2022-12-15T12:45:04;-1.70;99.90
43673;DHT22;41723;49.326;8.430;2022-12-15T12:47:32;-1.70;99.90
43673;DHT22;41723;49.326;8.430;2022-12-15T12:50:01;-1.70;99.90
43673;DHT22;41723;49.326;8.430;2022-12-15T12:52:29;-1.50;99.90
43673;DHT22;41723;49.326;8.430;2022-12-15T12:54:57;-1.50;99.90
43673;DHT22;41723;49.326;8.430;2022-12-15T12:57:31;-1.60;99.90
43673;DHT22;41723;49.326;8.430;2022-12-15T13:15:49;-1.70;99.90
43673;DHT22;41723;49.326;8.430;2022-12-15T13:18:23;-1.60;99.90
43673;DHT22;41723;49.326;8.430;2022-12-15T13:20:53;-1.60;99.90
43673;DHT22;41723;49.326;8.430;2022-12-15T13:29:01;-1.40;99.90
43673;DHT22;41723;49.326;8.430;2022-12-15T13:36:10;-1.60;99.90
43673;DHT22;41723;49.326;8.430;2022-12-15T13:38:54;-1.50;99.90
43673;DHT22;41723;49.326;8.430;2022-12-15T13:41:21;-1.60;99.90
43673;DHT22;41723;49.326;8.430;2022-12-15T13:43:47;-1.70;99.90
43673;DHT22;41723;49.326;8.430;2022-12-15T13:46:15;-1.50;99.90
43673;DHT22;41723;49.326;8.430;2022-12-15T13:48:46;-1.60;99.90
43673;DHT22;41723;49.326;8.430;2022-12-15T13:54:20;-1.50;99.90
43673;DHT22;41723;49.326;8.430;2022-12-15T13:56:43;-1.60;99.90
43673;DHT22;41723;49.326;8.430;2022-12-15T13:59:23;-1.60;99.90
43673;DHT22;41723;49.326;8.430;2022-12-15T14:01:50;-1.70;99.90
43673;DHT22;41723;49.326;8.430;2022-12-15T14:04:16;-1.70;99.90
43673;DHT22;41723;49.326;8.430;2022-12-15T14:06:44;-1.60;99.90
43673;DHT22;41723;49.326;8.430;2022-12-15T14:09:11;-1.60;99.90
43673;DHT22;41723;49.326;8.430;2022-12-15T14:11:38;-1.60;99.90
43673;DHT22;41723;49.326;8.430;2022-12-15T14:14:05;-1.60;99.90
43673;DHT22;41723;49.326;8.430;2022-12-15T14:16:36;-1.60;99.90
43673;DHT22;41723;49.326;8.430;2022-12-15T14:19:11;-1.70;99.90
43673;DHT22;41723;49.326;8.430;2022-12-15T14:21:38;-1.60;99.90
43673;DHT22;41723;49.326;8.430;2022-12-15T14:24:14;-1.60;99.90
43673;DHT22;41723;49.326;8.430;2022-12-15T14:26:40;-1.60;99.90
43673;DHT22;41723;49.326;8.430;2022-12-15T14:29:05;-1.60;99.90
43673;DHT22;41723;49.326;8.430;2022-12-15T14:31:31;-1.60;99.90
43673;DHT22;41723;49.326;8.430;2022-12-15T14:36:41;-1.50;99.90
43673;DHT22;41723;49.326;8.430;2022-12-15T14:39:28;-1.40;99.90
43673;DHT22;41723;49.326;8.430;2022-12-15T14:41:56;-1.40;99.90
43673;DHT22;41723;49.326;8.430;2022-12-15T14:46:49;-1.40;99.90
43673;DHT22;41723;49.326;8.430;2022-12-15T14:49:19;-1.60;99.90
43673;DHT22;41723;49.326;8.430;2022-12-15T14:51:46;-1.60;99.90
43673;DHT22;41723;49.326;8.430;2022-12-15T14:54:25;-1.60;99.90
43673;DHT22;41723;49.326;8.430;2022-12-15T14:56:55;-1.60;99.90
43673;DHT22;41723;49.326;8.430;2022-12-15T14:59:22;-1.60;99.90
43673;DHT22;41723;49.326;8.430;2022-12-15T15:01:58;-1.50;99.90
43673;DHT22;41723;49.326;8.430;2022-12-15T15:04:32;-1.50;99.90
43673;DHT22;41723;49.326;8.430;2022-12-15T15:06:59;-1.50;99.90
43673;DHT22;41723;49.326;8.430;2022-12-15T15:09:26;-1.50;99.90
43673;DHT22;41723;49.326;8.430;2022-12-15T15:11:53;-1.60;99.90
43673;DHT22;41723;49.326;8.430;2022-12-15T15:14:26;-1.60;99.90
43673;DHT22;41723;49.326;8.430;2022-12-15T15:17:01;-1.70;99.90
43673;DHT22;41723;49.326;8.430;2022-12-15T15:19:28;-1.70;99.90
43673;DHT22;41723;49.326;8.430;2022-12-15T15:21:54;-1.60;99.90
43673;DHT22;41723;49.326;8.430;2022-12-15T15:24:24;-1.60;99.90
43673;DHT22;41723;49.326;8.430;2022-12-15T15:26:50;-1.60;99.90
43673;DHT22;41723;49.326;8.430;2022-12-15T15:29:30;-1.70;99.90
43673;DHT22;41723;49.326;8.430;2022-12-15T15:32:13;-1.60;99.90
43673;DHT22;41723;49.326;8.430;2022-12-15T15:34:40;-1.50;99.90
43673;DHT22;41723;49.326;8.430;2022-12-15T15:37:24;-1.50;99.90
43673;DHT22;41723;49.326;8.430;2022-12-15T15:39:50;-1.40;99.90
43673;DHT22;41723;49.326;8.430;2022-12-15T15:42:16;-1.50;99.90
43673;DHT22;41723;49.326;8.430;2022-12-15T15:44:42;-1.50;99.90
43673;DHT22;41723;49.326;8.430;2022-12-15T15:47:23;-1.40;99.90
43673;DHT22;41723;49.326;8.430;2022-12-15T15:49:49;-1.40;99.90
43673;DHT22;41723;49.326;8.430;2022-12-15T15:52:15;-1.50;99.90
43673;DHT22;41723;49.326;8.430;2022-12-15T15:54:41;-1.50;99.90
43673;DHT22;41723;49.326;8.430;2022-12-15T15:57:16;-1.60;99.90
43673;DHT22;41723;49.326;8.430;2022-12-15T15:59:43;-1.50;99.90
43673;DHT22;41723;49.326;8.430;2022-12-15T16:02:09;-1.50;99.90
43673;DHT22;41723;49.326;8.430;2022-12-15T16:04:35;-1.60;99.90
43673;DHT22;41723;49.326;8.430;2022-12-15T16:07:04;-1.50;99.90
43673;DHT22;41723;49.326;8.430;2022-12-15T16:09:31;-1.60;99.90
43673;DHT22;41723;49.326;8.430;2022-12-15T16:11:56;-1.60;99.90
43673;DHT22;41723;49.326;8.430;2022-12-15T16:14:22;-1.60;99.90
43673;DHT22;41723;49.326;8.430;2022-12-15T16:16:48;-1.50;99.90
43673;DHT22;41723;49.326;8.430;2022-12-15T16:19:14;-1.60;99.90
43673;DHT22;41723;49.326;8.430;2022-12-15T16:21:40;-1.50;99.90
43673;DHT22;41723;49.326;8.430;2022-12-15T16:24:10;-1.40;99.90
43673;DHT22;41723;49.326;8.430;2022-12-15T16:26:37;-1.50;99.90
43673;DHT22;41723;49.326;8.430;2022-12-15T16:29:13;-1.50;99.90
43673;DHT22;41723;49.326;8.430;2022-12-15T16:31:39;-1.60;99.90
43673;DHT22;41723;49.326;8.430;2022-12-15T16:34:13;-1.50;99.90
43673;DHT22;41723;49.326;8.430;2022-12-15T16:36:40;-1.60;99.90
43673;DHT22;41723;49.326;8.430;2022-12-15T16:39:23;-1.60;99.90
43673;DHT22;41723;49.326;8.430;2022-12-15T16:41:49;-1.70;99.90
43673;DHT22;41723;49.326;8.430;2022-12-15T16:44:16;-1.70;99.90
43673;DHT22;41723;49.326;8.430;2022-12-15T16:46:42;-1.60;99.90
43673;DHT22;41723;49.326;8.430;2022-12-15T16:49:07;-1.60;99.90
43673;DHT22;41723;49.326;8.430;2022-12-15T16:51:36;-1.60;99.90
43673;DHT22;41723;49.326;8.430;2022-12-15T16:54:02;-1.70;99.90
43673;DHT22;41723;49.326;8.430;2022-12-15T16:56:28;-1.70;99.90
43673;DHT22;41723;49.326;8.430;2022-12-15T16:58:54;-1.70;99.90
43673;DHT22;41723;49.326;8.430;2022-12-15T17:01:21;-1.70;99.90
43673;DHT22;41723;49.326;8.430;2022-12-15T17:03:46;-1.60;99.90
43673;DHT22;41723;49.326;8.430;2022-12-15T17:06:12;-1.60;99.90
43673;DHT22;41723;49.326;8.430;2022-12-15T17:08:50;-1.60;99.90
43673;DHT22;41723;49.326;8.430;2022-12-15T17:11:18;-1.70;99.90
43673;DHT22;41723;49.326;8.430;2022-12-15T17:13:44;-1.80;99.90
43673;DHT22;41723;49.326;8.430;2022-12-15T17:16:12;-1.80;99.90
43673;DHT22;41723;49.326;8.430;2022-12-15T17:18:39;-1.80;99.90
43673;DHT22;41723;49.326;8.430;2022-12-15T17:21:10;-1.70;99.90
43673;DHT22;41723;49.326;8.430;2022-12-15T17:23:37;-1.70;99.90
43673;DHT22;41723;49.326;8.430;2022-12-15T17:26:04;-1.70;99.90
43673;DHT22;41723;49.326;8.430;2022-12-15T17:28:31;-1.70;99.90
43673;DHT22;41723;49.326;8.430;2022-12-15T17:30:59;-1.70;99.90
43673;DHT22;41723;49.326;8.430;2022-12-15T17:33:25;-1.80;99.90
43673;DHT22;41723;49.326;8.430;2022-12-15T17:35:55;-1.70;99.90
43673;DHT22;41723;49.326;8.430;2022-12-15T17:38:21;-1.70;99.90
43673;DHT22;41723;49.326;8.430;2022-12-15T17:40:48;-1.70;99.90
43673;DHT22;41723;49.326;8.430;2022-12-15T17:43:18;-1.70;99.90
43673;DHT22;41723;49.326;8.430;2022-12-15T17:45:44;-1.80;99.90
43673;DHT22;41723;49.326;8.430;2022-12-15T17:48:09;-1.80;99.90
43673;DHT22;41723;49.326;8.430;2022-12-15T17:50:35;-1.70;99.90
43673;DHT22;41723;49.326;8.430;2022-12-15T17:53:02;-1.70;99.90
43673;DHT22;41723;49.326;8.430;2022-12-15T17:55:28;-1.60;99.90
43673;DHT22;41723;49.326;8.430;2022-12-15T17:57:54;-1.60;99.90
43673;DHT22;41723;49.326;8.430;2022-12-15T18:00:21;-1.70;99.90
43673;DHT22;41723;49.326;8.430;2022-12-15T18:02:47;-1.60;99.90
43673;DHT22;41723;49.326;8.430;2022-12-15T18:05:13;-1.60;99.90
43673;DHT22;41723;49.326;8.430;2022-12-15T18:07:40;-1.60;99.90
43673;DHT22;41723;49.326;8.430;2022-12-15T18:10:06;-1.60;99.90
43673;DHT22;41723;49.326;8.430;2022-12-15T18:12:38;-1.50;99.90